createdAt,value
2018-12-16T00:01:10.147Z,18.75
2018-12-16T00:03:38.501Z,16.20
2018-12-16T00:06:07.169Z,16.95
2018-12-16T00:08:35.486Z,16.60
2018-12-16T00:11:03.806Z,17.95
2018-12-16T00:13:32.444Z,17.62
2018-12-16T00:16:00.895Z,17.92
2018-12-16T00:18:29.184Z,16.35
2018-12-16T00:20:57.555Z,17.35
2018-12-16T00:23:25.864Z,17.42
2018-12-16T00:25:54.177Z,18.35
2018-12-16T00:28:22.593Z,17.42
2018-12-16T00:30:50.944Z,16.60
2018-12-16T00:33:19.280Z,17.55
2018-12-16T00:35:47.610Z,15.98
2018-12-16T00:38:15.995Z,17.50
2018-12-16T00:40:44.541Z,18.70
2018-12-16T00:43:12.970Z,17.92
2018-12-16T00:45:41.257Z,18.02
2018-12-16T00:48:09.662Z,17.52
2018-12-16T00:50:38.525Z,17.05
2018-12-16T00:53:07.136Z,18.85
2018-12-16T00:55:35.519Z,18.40
2018-12-16T00:58:03.863Z,19.23
2018-12-16T01:00:32.215Z,19.35
2018-12-16T01:03:01.443Z,18.40
2018-12-16T01:05:29.950Z,19.20
2018-12-16T01:07:58.428Z,17.82
2018-12-16T01:10:27.702Z,20.00
2018-12-16T01:12:57.414Z,19.80
2018-12-16T01:15:28.284Z,18.52
2018-12-16T01:17:56.913Z,18.42
2018-12-16T01:20:25.369Z,18.57
2018-12-16T01:22:56.909Z,20.57
2018-12-16T01:25:25.305Z,20.50
2018-12-16T01:27:53.862Z,18.98
2018-12-16T01:30:22.191Z,19.25
2018-12-16T01:32:50.603Z,19.27
2018-12-16T01:35:19.069Z,20.52
2018-12-16T01:37:47.469Z,20.08
2018-12-16T01:40:16.632Z,20.23
2018-12-16T01:42:44.990Z,20.05
2018-12-16T01:45:13.492Z,22.02
2018-12-16T01:47:41.815Z,19.12
2018-12-16T01:50:10.304Z,21.30
2018-12-16T01:52:38.790Z,20.82
2018-12-16T01:55:08.629Z,22.17
2018-12-16T01:57:37.073Z,20.65
2018-12-16T02:00:09.604Z,21.75
2018-12-16T02:02:37.961Z,20.92
2018-12-16T02:05:06.813Z,19.85
2018-12-16T02:07:35.134Z,22.17
2018-12-16T02:10:04.385Z,20.35
2018-12-16T02:12:32.685Z,19.98
2018-12-16T02:15:00.980Z,21.23
2018-12-16T02:17:29.550Z,21.70
2018-12-16T02:19:57.837Z,19.80
2018-12-16T02:22:26.167Z,19.07
2018-12-16T02:24:54.597Z,19.17
2018-12-16T02:27:22.928Z,20.15
2018-12-16T02:29:52.082Z,20.95
2018-12-16T02:32:20.436Z,18.92
2018-12-16T02:34:48.837Z,21.00
2018-12-16T02:37:17.350Z,19.77
2018-12-16T02:39:45.820Z,20.65
2018-12-16T02:42:14.293Z,20.45
2018-12-16T02:44:42.622Z,18.65
2018-12-16T02:47:10.966Z,21.68
2018-12-16T02:49:39.347Z,20.05
2018-12-16T02:52:07.730Z,23.60
2018-12-16T02:54:36.049Z,21.50
2018-12-16T02:57:04.422Z,23.65
2018-12-16T02:59:32.796Z,22.30
2018-12-16T03:02:01.313Z,24.02
2018-12-16T03:04:29.720Z,22.27
2018-12-16T03:06:58.035Z,23.95
2018-12-16T03:09:26.571Z,23.90
2018-12-16T03:11:55.106Z,24.87
2018-12-16T03:14:23.508Z,25.85
2018-12-16T03:16:52.000Z,24.12
2018-12-16T03:19:20.289Z,24.87
2018-12-16T03:21:48.641Z,24.10
2018-12-16T03:24:17.117Z,26.10
2018-12-16T03:26:45.458Z,23.00
2018-12-16T03:29:13.770Z,24.50
2018-12-16T03:31:42.092Z,23.55
2018-12-16T03:34:10.511Z,23.75
2018-12-16T03:36:38.816Z,24.67
2018-12-16T03:39:07.743Z,24.60
2018-12-16T03:41:36.535Z,22.07
2018-12-16T03:44:05.103Z,23.95
2018-12-16T03:46:33.534Z,21.65
2018-12-16T03:49:01.887Z,23.52
2018-12-16T03:51:30.161Z,23.07
2018-12-16T03:53:58.487Z,21.90
2018-12-16T03:56:26.926Z,22.35
2018-12-16T03:59:21.918Z,23.32
2018-12-16T04:02:04.688Z,24.80
2018-12-16T04:04:33.219Z,21.95
2018-12-16T04:07:01.585Z,23.05
2018-12-16T04:09:30.018Z,21.35
2018-12-16T04:11:58.371Z,19.37
2018-12-16T04:14:26.675Z,20.90
2018-12-16T04:16:55.005Z,22.75
2018-12-16T04:19:23.317Z,22.27
2018-12-16T04:21:51.675Z,22.07
2018-12-16T04:24:20.006Z,21.10
2018-12-16T04:26:48.753Z,21.42
2018-12-16T04:29:17.043Z,20.08
2018-12-16T04:31:45.423Z,20.72
2018-12-16T04:34:13.789Z,23.10
2018-12-16T04:36:42.139Z,21.82
2018-12-16T04:39:10.498Z,23.77
2018-12-16T04:41:38.944Z,22.70
2018-12-16T04:44:07.348Z,22.48
2018-12-16T04:46:35.683Z,21.62
2018-12-16T04:49:04.174Z,21.60
2018-12-16T04:51:32.465Z,23.10
2018-12-16T04:54:00.790Z,22.85
2018-12-16T04:56:29.200Z,22.82
2018-12-16T04:58:57.485Z,23.20
2018-12-16T05:01:25.865Z,22.50
2018-12-16T05:03:54.174Z,23.07
2018-12-16T05:06:22.466Z,22.55
2018-12-16T05:08:50.749Z,22.98
2018-12-16T05:11:19.364Z,21.17
2018-12-16T05:13:47.660Z,22.37
2018-12-16T05:16:15.966Z,22.27
2018-12-16T05:18:44.281Z,21.95
2018-12-16T05:21:12.562Z,22.05
2018-12-16T05:23:42.082Z,21.42
2018-12-16T05:26:11.172Z,22.05
2018-12-16T05:28:39.467Z,20.55
2018-12-16T05:31:08.294Z,21.25
2018-12-16T05:33:37.553Z,22.73
2018-12-16T05:36:06.085Z,20.88
2018-12-16T05:38:34.403Z,23.52
2018-12-16T05:41:02.801Z,22.48
2018-12-16T05:43:31.140Z,22.22
2018-12-16T05:45:59.552Z,20.97
2018-12-16T05:48:27.868Z,20.80
2018-12-16T05:50:56.174Z,23.20
2018-12-16T05:53:24.494Z,23.20
2018-12-16T05:55:53.106Z,22.65
2018-12-16T05:58:21.428Z,24.45
2018-12-16T06:00:49.732Z,22.65
2018-12-16T06:03:18.034Z,22.05
2018-12-16T06:05:46.380Z,23.50
2018-12-16T06:08:14.690Z,22.02
2018-12-16T06:10:43.075Z,23.80
2018-12-16T06:13:11.398Z,24.63
2018-12-16T06:15:39.786Z,25.72
2018-12-16T06:18:08.577Z,25.70
2018-12-16T06:20:36.900Z,23.55
2018-12-16T06:23:05.188Z,18.45
2018-12-16T06:25:33.548Z,23.22
2018-12-16T06:28:01.861Z,24.63
2018-12-16T06:30:31.492Z,25.77
2018-12-16T06:32:59.827Z,27.25
2018-12-16T06:35:28.126Z,21.93
2018-12-16T06:37:56.411Z,25.02
2018-12-16T06:40:25.303Z,23.32
2018-12-16T06:42:53.599Z,24.25
2018-12-16T06:45:21.948Z,23.92
2018-12-16T06:47:50.284Z,24.75
2018-12-16T06:50:18.610Z,24.52
2018-12-16T06:52:46.889Z,23.12
2018-12-16T06:55:15.237Z,23.92
2018-12-16T06:57:43.554Z,25.23
2018-12-16T07:00:13.326Z,24.45
2018-12-16T07:02:41.925Z,28.35
2018-12-16T07:05:10.264Z,24.75
2018-12-16T07:07:38.570Z,24.47
2018-12-16T07:10:06.929Z,25.55
2018-12-16T07:12:35.211Z,27.17
2018-12-16T07:15:03.563Z,25.60
2018-12-16T07:17:31.973Z,24.98
2018-12-16T07:20:00.301Z,24.63
2018-12-16T07:22:28.738Z,25.40
2018-12-16T07:24:57.410Z,26.25
2018-12-16T07:27:25.723Z,25.92
2018-12-16T07:29:54.051Z,23.10
2018-12-16T07:32:22.376Z,24.20
2018-12-16T07:34:50.701Z,24.65
2018-12-16T07:37:19.463Z,24.52
2018-12-16T07:39:47.916Z,25.52
2018-12-16T07:42:16.335Z,25.15
2018-12-16T07:44:44.825Z,23.42
2018-12-16T07:47:13.536Z,23.80
2018-12-16T07:49:41.871Z,25.40
2018-12-16T07:52:10.213Z,24.23
2018-12-16T07:54:38.639Z,23.57
2018-12-16T07:57:06.967Z,24.85
2018-12-16T07:59:35.365Z,21.77
2018-12-16T08:02:03.731Z,23.42
2018-12-16T08:04:32.145Z,21.73
2018-12-16T08:07:00.574Z,24.02
2018-12-16T08:09:28.985Z,23.87
2018-12-16T08:11:57.309Z,21.95
2018-12-16T08:14:25.653Z,19.87
2018-12-16T08:16:54.449Z,20.23
2018-12-16T08:19:23.207Z,20.55
2018-12-16T08:21:51.531Z,20.40
2018-12-16T08:24:23.107Z,21.00
2018-12-16T08:26:50.279Z,18.55
2018-12-16T08:29:18.574Z,19.50
2018-12-16T08:31:47.193Z,17.25
2018-12-16T08:34:15.539Z,17.85
2018-12-16T08:36:43.831Z,21.77
2018-12-16T08:39:12.183Z,18.45
2018-12-16T08:41:40.470Z,19.27
2018-12-16T08:44:08.802Z,18.82
2018-12-16T08:46:37.157Z,19.77
2018-12-16T08:49:05.425Z,18.50
2018-12-16T08:51:33.745Z,18.70
2018-12-16T08:54:02.549Z,18.92
2018-12-16T08:56:30.864Z,17.57
2018-12-16T08:58:59.170Z,18.85
2018-12-16T09:01:29.264Z,19.12
2018-12-16T09:03:57.870Z,19.82
2018-12-16T09:06:26.204Z,19.85
2018-12-16T09:08:54.970Z,19.65
2018-12-16T09:11:23.503Z,17.73
2018-12-16T09:13:51.817Z,18.65
2018-12-16T09:16:20.322Z,18.55
2018-12-16T09:18:48.684Z,18.82
2018-12-16T09:21:17.218Z,18.87
2018-12-16T09:23:45.600Z,17.52
2018-12-16T09:26:13.939Z,17.55
2018-12-16T09:28:42.277Z,17.90
2018-12-16T09:31:10.620Z,16.75
2018-12-16T09:33:38.951Z,16.87
2018-12-16T09:36:07.350Z,17.90
2018-12-16T09:38:35.761Z,17.25
2018-12-16T09:41:04.095Z,17.62
2018-12-16T09:43:32.435Z,18.77
2018-12-16T09:46:00.818Z,17.00
2018-12-16T09:48:29.118Z,18.12
2018-12-16T09:50:57.448Z,17.50
2018-12-16T09:53:25.807Z,18.48
2018-12-16T09:55:54.114Z,17.42
2018-12-16T09:58:22.443Z,17.32
2018-12-16T10:00:50.882Z,17.07
2018-12-16T10:03:19.225Z,17.60
2018-12-16T10:05:47.606Z,16.50
2018-12-16T10:08:15.919Z,16.87
2018-12-16T10:10:44.277Z,16.55
2018-12-16T10:13:12.604Z,16.40
2018-12-16T10:15:40.958Z,15.72
2018-12-16T10:18:09.249Z,17.23
2018-12-16T10:20:37.578Z,17.02
2018-12-16T10:23:06.238Z,17.00
2018-12-16T10:25:34.525Z,15.93
2018-12-16T10:28:02.963Z,15.15
2018-12-16T10:30:31.337Z,15.80
2018-12-16T10:32:59.696Z,16.23
2018-12-16T10:35:28.020Z,15.78
2018-12-16T10:37:56.411Z,15.40
2018-12-16T10:40:24.785Z,14.85
2018-12-16T10:42:53.114Z,16.50
2018-12-16T10:45:21.987Z,17.20
2018-12-16T10:47:50.266Z,16.70
2018-12-16T10:50:18.602Z,16.62
2018-12-16T10:52:46.960Z,16.93
2018-12-16T10:55:15.285Z,16.35
2018-12-16T10:57:43.579Z,17.98
2018-12-16T11:00:20.481Z,18.60
2018-12-16T11:02:48.862Z,16.30
2018-12-16T11:05:17.537Z,17.17
2018-12-16T11:07:50.621Z,17.20
2018-12-16T11:10:18.991Z,17.75
2018-12-16T11:12:48.081Z,17.25
2018-12-16T11:15:16.808Z,16.90
2018-12-16T11:17:45.137Z,17.57
2018-12-16T11:20:13.495Z,18.05
2018-12-16T11:22:42.202Z,16.30
2018-12-16T11:25:11.579Z,18.00
2018-12-16T11:27:39.961Z,17.57
2018-12-16T11:30:09.958Z,18.10
2018-12-16T11:32:38.279Z,17.98
2018-12-16T11:35:06.955Z,17.57
2018-12-16T11:37:35.378Z,18.00
2018-12-16T11:40:04.800Z,17.67
2018-12-16T11:42:33.143Z,17.40
2018-12-16T11:45:01.478Z,17.32
2018-12-16T11:47:29.774Z,17.80
2018-12-16T11:49:58.086Z,18.57
2018-12-16T11:52:26.808Z,18.17
2018-12-16T11:54:55.254Z,17.60
2018-12-16T11:57:23.616Z,16.77
2018-12-16T11:59:51.948Z,18.12
2018-12-16T12:02:20.323Z,17.50
2018-12-16T12:04:48.634Z,20.25
2018-12-16T12:07:16.969Z,20.25
2018-12-16T12:09:45.320Z,18.85
2018-12-16T12:12:13.702Z,18.70
2018-12-16T12:14:42.488Z,18.48
2018-12-16T12:17:10.840Z,18.75
2018-12-16T12:19:39.221Z,17.10
2018-12-16T12:22:07.690Z,18.85
2018-12-16T12:24:36.039Z,18.90
2018-12-16T12:27:04.385Z,19.82
2018-12-16T12:29:32.845Z,19.75
2018-12-16T12:32:01.174Z,19.10
2018-12-16T12:34:29.499Z,20.82
2018-12-16T12:36:57.909Z,21.02
2018-12-16T12:39:26.238Z,20.10
2018-12-16T12:41:54.574Z,19.37
2018-12-16T12:44:22.926Z,20.10
2018-12-16T12:46:51.319Z,20.52
2018-12-16T12:49:19.642Z,19.25
2018-12-16T12:51:48.035Z,18.55
2018-12-16T12:54:16.405Z,17.35
2018-12-16T12:56:44.712Z,20.37
2018-12-16T12:59:13.508Z,20.02
2018-12-16T13:01:41.900Z,18.52
2018-12-16T13:04:10.200Z,20.77
2018-12-16T13:06:38.613Z,19.42
2018-12-16T13:09:07.812Z,19.70
2018-12-16T13:11:36.177Z,21.30
2018-12-16T13:14:04.555Z,18.87
2018-12-16T13:16:32.853Z,20.80
2018-12-16T13:19:01.353Z,18.75
2018-12-16T13:21:29.779Z,20.10
2018-12-16T13:23:58.067Z,20.17
2018-12-16T13:26:26.398Z,19.48
2018-12-16T13:28:54.714Z,18.92
2018-12-16T13:31:23.009Z,21.30
2018-12-16T13:33:51.363Z,20.57
2018-12-16T13:36:19.711Z,19.15
2018-12-16T13:38:48.050Z,21.75
2018-12-16T13:41:16.363Z,20.05
2018-12-16T13:43:44.841Z,20.97
2018-12-16T13:46:13.201Z,19.92
2018-12-16T13:48:41.535Z,19.85
2018-12-16T13:51:09.943Z,19.25
2018-12-16T13:53:38.312Z,20.37
2018-12-16T13:56:06.632Z,20.45
2018-12-16T13:58:34.998Z,20.40
2018-12-16T14:01:03.313Z,19.30
2018-12-16T14:03:31.633Z,19.92
2018-12-16T14:06:00.112Z,21.30
2018-12-16T14:08:28.478Z,21.65
2018-12-16T14:10:56.860Z,20.00
2018-12-16T14:13:25.274Z,20.35
2018-12-16T14:15:53.595Z,20.80
2018-12-16T14:18:21.941Z,21.10
2018-12-16T14:20:50.299Z,20.88
2018-12-16T14:23:18.583Z,20.65
2018-12-16T14:25:48.198Z,20.55
2018-12-16T14:28:16.905Z,20.45
2018-12-16T14:30:45.274Z,20.27
2018-12-16T14:33:13.643Z,20.50
2018-12-16T14:35:41.963Z,20.55
2018-12-16T14:38:10.596Z,19.77
2018-12-16T14:40:38.940Z,21.40
2018-12-16T14:43:07.256Z,20.48
2018-12-16T14:45:35.773Z,21.93
2018-12-16T14:48:04.227Z,19.35
2018-12-16T14:50:33.775Z,19.95
2018-12-16T14:53:02.182Z,21.55
2018-12-16T14:55:30.533Z,20.20
2018-12-16T14:57:59.015Z,20.37
2018-12-16T15:00:27.497Z,19.35
2018-12-16T15:02:55.812Z,19.60
2018-12-16T15:05:24.459Z,20.62
2018-12-16T15:07:52.864Z,20.90
2018-12-16T15:10:21.297Z,20.92
2018-12-16T15:12:49.830Z,21.62
2018-12-16T15:15:18.777Z,20.52
2018-12-16T15:17:47.283Z,20.82
2018-12-16T15:20:15.631Z,21.40
2018-12-16T15:22:43.953Z,19.77
2018-12-16T15:25:12.246Z,18.75
2018-12-16T15:27:40.641Z,19.25
2018-12-16T15:30:09.472Z,20.30
2018-12-16T15:32:37.787Z,19.85
2018-12-16T15:35:06.266Z,19.70
2018-12-16T15:37:34.591Z,20.90
2018-12-16T15:40:03.027Z,19.45
2018-12-16T15:42:31.370Z,18.30
2018-12-16T15:44:59.977Z,19.87
2018-12-16T15:47:28.453Z,20.02
2018-12-16T15:49:56.983Z,20.50
2018-12-16T15:52:25.347Z,21.50
2018-12-16T15:54:53.703Z,19.52
2018-12-16T15:57:22.238Z,21.75
2018-12-16T15:59:50.560Z,20.82
2018-12-16T16:02:18.875Z,19.57
2018-12-16T16:04:47.254Z,19.12
2018-12-16T16:07:15.584Z,19.95
2018-12-16T16:09:43.901Z,20.57
2018-12-16T16:12:12.213Z,19.17
2018-12-16T16:14:40.604Z,19.90
2018-12-16T16:17:08.936Z,19.75
2018-12-16T16:19:37.613Z,20.57
2018-12-16T16:22:06.005Z,19.75
2018-12-16T16:24:34.281Z,21.17
2018-12-16T16:27:02.647Z,19.50
2018-12-16T16:29:31.009Z,20.85
2018-12-16T16:31:59.375Z,20.40
2018-12-16T16:34:27.697Z,19.10
2018-12-16T16:36:56.147Z,22.05
2018-12-16T16:39:24.432Z,22.05
2018-12-16T16:41:52.839Z,20.32
2018-12-16T16:44:21.121Z,20.20
2018-12-16T16:46:49.756Z,20.88
2018-12-16T16:49:18.106Z,20.00
2018-12-16T16:51:46.401Z,19.85
2018-12-16T16:54:14.693Z,21.00
2018-12-16T16:56:43.010Z,20.82
2018-12-16T16:59:11.302Z,20.52
2018-12-16T17:01:39.629Z,20.88
2018-12-16T17:04:08.026Z,18.55
2018-12-16T17:06:36.319Z,19.95
2018-12-16T17:09:08.045Z,20.65
2018-12-16T17:11:36.498Z,20.62
2018-12-16T17:14:04.885Z,19.35
2018-12-16T17:16:33.176Z,18.23
2018-12-16T17:19:02.625Z,20.08
2018-12-16T17:21:31.570Z,19.98
2018-12-16T17:23:59.882Z,21.97
2018-12-16T17:26:30.254Z,20.88
2018-12-16T17:28:58.640Z,21.27
2018-12-16T17:31:26.960Z,20.90
2018-12-16T17:33:55.288Z,20.97
2018-12-16T17:36:23.591Z,23.25
2018-12-16T17:38:51.912Z,23.40
2018-12-16T17:41:20.959Z,21.30
2018-12-16T17:43:49.264Z,20.90
2018-12-16T17:46:17.575Z,21.90
2018-12-16T17:48:45.995Z,22.02
2018-12-16T17:51:14.313Z,21.52
2018-12-16T17:53:42.857Z,19.85
2018-12-16T17:56:11.205Z,21.70
2018-12-16T17:58:39.519Z,21.68
2018-12-16T18:01:07.893Z,21.55
2018-12-16T18:03:36.234Z,20.85
2018-12-16T18:06:04.660Z,23.25
2018-12-16T18:08:33.005Z,21.40
2018-12-16T18:11:01.534Z,20.97
2018-12-16T18:13:29.887Z,23.00
2018-12-16T18:16:05.423Z,21.57
2018-12-16T18:18:40.718Z,23.12
2018-12-16T18:21:18.604Z,22.22
2018-12-16T18:23:47.213Z,21.65
2018-12-16T18:26:15.506Z,20.85
2018-12-16T18:28:44.133Z,20.50
2018-12-16T18:31:12.480Z,22.58
2018-12-16T18:33:40.830Z,21.40
2018-12-16T18:36:09.253Z,23.35
2018-12-16T18:38:37.531Z,21.45
2018-12-16T18:41:05.959Z,21.55
2018-12-16T18:43:34.417Z,22.35
2018-12-16T18:46:02.857Z,22.85
2018-12-16T18:48:31.263Z,22.17
2018-12-16T18:50:59.913Z,22.22
2018-12-16T18:53:28.466Z,22.30
2018-12-16T18:55:56.757Z,24.77
2018-12-16T18:58:25.061Z,22.52
2018-12-16T19:00:53.408Z,22.65
2018-12-16T19:03:21.759Z,22.52
2018-12-16T19:05:50.382Z,22.77
2018-12-16T19:08:18.695Z,23.00
2018-12-16T19:10:46.994Z,23.95
2018-12-16T19:13:15.450Z,23.50
2018-12-16T19:15:43.773Z,24.32
2018-12-16T19:18:12.063Z,23.92
2018-12-16T19:20:40.659Z,24.75
2018-12-16T19:23:09.395Z,24.65
2018-12-16T19:25:37.736Z,22.48
2018-12-16T19:28:07.403Z,22.70
2018-12-16T19:30:35.744Z,23.77
2018-12-16T19:33:04.241Z,23.38
2018-12-16T19:35:32.796Z,24.23
2018-12-16T19:38:02.448Z,24.63
2018-12-16T19:40:31.479Z,23.12
2018-12-16T19:43:00.082Z,26.15
2018-12-16T19:45:28.411Z,26.12
2018-12-16T19:47:56.731Z,26.73
2018-12-16T19:50:25.113Z,24.12
2018-12-16T19:52:53.417Z,24.43
2018-12-16T19:55:23.234Z,24.40
2018-12-16T19:57:51.769Z,24.50
2018-12-16T20:00:20.066Z,24.55
2018-12-16T20:02:48.372Z,24.00
2018-12-16T20:05:20.613Z,24.85
2018-12-16T20:07:49.503Z,24.98
2018-12-16T20:10:17.879Z,25.55
2018-12-16T20:12:46.344Z,25.95
2018-12-16T20:15:14.678Z,23.55
2018-12-16T20:17:42.979Z,23.60
2018-12-16T20:20:11.749Z,25.25
2018-12-16T20:22:40.067Z,24.00
2018-12-16T20:25:08.593Z,21.97
2018-12-16T20:27:36.931Z,24.90
2018-12-16T20:30:07.707Z,24.87
2018-12-16T20:32:36.037Z,23.90
2018-12-16T20:35:05.548Z,24.52
2018-12-16T20:37:34.723Z,22.65
2018-12-16T20:40:03.232Z,24.45
2018-12-16T20:42:31.816Z,24.35
2018-12-16T20:45:00.122Z,23.87
2018-12-16T20:47:28.445Z,23.85
2018-12-16T20:49:57.493Z,25.30
2018-12-16T20:52:25.791Z,22.95
2018-12-16T20:54:54.123Z,25.10
2018-12-16T20:57:22.504Z,24.23
2018-12-16T20:59:50.919Z,26.00
2018-12-16T21:02:19.297Z,21.77
2018-12-16T21:04:48.110Z,22.45
2018-12-16T21:07:16.433Z,22.93
2018-12-16T21:09:44.761Z,22.93
2018-12-16T21:15:21.617Z,23.42
2018-12-16T21:17:55.317Z,21.70
2018-12-16T21:20:26.686Z,21.35
2018-12-16T21:22:54.964Z,21.60
2018-12-16T21:25:23.569Z,21.80
2018-12-16T21:27:51.853Z,22.80
2018-12-16T21:30:20.198Z,21.85
2018-12-16T21:32:48.580Z,20.88
2018-12-16T21:35:22.746Z,22.15
2018-12-16T21:37:56.653Z,20.95
2018-12-16T21:40:25.258Z,21.68
2018-12-16T21:42:54.062Z,23.38
2018-12-16T21:45:22.501Z,23.50
2018-12-16T21:47:50.943Z,23.02
2018-12-16T21:50:19.253Z,21.40
2018-12-16T21:52:47.600Z,21.80
2018-12-16T21:55:15.944Z,23.47
2018-12-16T21:57:44.288Z,23.77
2018-12-16T22:00:13.624Z,20.23
2018-12-16T22:02:41.915Z,23.20
2018-12-16T22:05:11.468Z,21.12
2018-12-16T22:07:39.891Z,22.00
2018-12-16T22:10:08.331Z,21.85
2018-12-16T22:12:36.673Z,22.25
2018-12-16T22:15:05.434Z,22.22
2018-12-16T22:17:33.734Z,21.75
2018-12-16T22:20:02.072Z,21.87
2018-12-16T22:22:30.462Z,22.13
2018-12-16T22:24:58.888Z,23.12
2018-12-16T22:27:27.224Z,22.55
2018-12-16T22:29:56.041Z,22.20
2018-12-16T22:32:24.325Z,23.10
2018-12-16T22:34:52.625Z,22.00
2018-12-16T22:37:21.198Z,21.62
2018-12-16T22:39:49.532Z,22.70
2018-12-16T22:42:17.814Z,23.77
2018-12-16T22:44:46.223Z,23.73
2018-12-16T22:47:14.541Z,22.40
2018-12-16T22:49:42.857Z,22.67
2018-12-16T22:52:11.665Z,22.45
2018-12-16T22:54:40.000Z,21.93
2018-12-16T22:57:08.302Z,20.40
2018-12-16T22:59:39.033Z,22.55
2018-12-16T23:02:07.446Z,23.60
2018-12-16T23:04:35.742Z,24.10
2018-12-16T23:07:04.073Z,23.62
2018-12-16T23:09:32.422Z,22.22
2018-12-16T23:12:00.783Z,22.50
2018-12-16T23:14:29.318Z,24.07
2018-12-16T23:16:57.655Z,23.92
2018-12-16T23:19:25.952Z,23.92
2018-12-16T23:21:54.283Z,24.12
2018-12-16T23:24:24.235Z,22.62
2018-12-16T23:26:52.603Z,23.32
2018-12-16T23:29:20.937Z,22.60
2018-12-16T23:31:49.216Z,23.20
2018-12-16T23:34:17.528Z,24.90
2018-12-16T23:36:46.245Z,23.85
2018-12-16T23:39:14.525Z,24.35
2018-12-16T23:41:42.845Z,23.60
2018-12-16T23:44:11.147Z,23.02
2018-12-16T23:46:39.442Z,23.22
2018-12-16T23:49:07.742Z,23.27
2018-12-16T23:51:36.109Z,24.25
2018-12-16T23:54:04.474Z,23.87
2018-12-16T23:56:32.767Z,23.70
2018-12-16T23:59:01.213Z,22.87
